sensor_id;sensor_type;location;lat;lon;timestamp;P1;durP1;ratioP1;P2;durP2;ratioP2
80411;SDS011;69749;42.684;23.360;2024-03-29T00:01:16;3.35;;;1.48;;
80411;SDS011;69749;42.684;23.360;2024-03-29T00:03:41;4.82;;;3.25;;
80411;SDS011;69749;42.684;23.360;2024-03-29T00:06:08;3.90;;;1.40;;
80411;SDS011;69749;42.684;23.360;2024-03-29T00:08:33;4.28;;;1.90;;
80411;SDS011;69749;42.684;23.360;2024-03-29T00:10:59;3.78;;;1.67;;
80411;SDS011;69749;42.684;23.360;2024-03-29T00:13:24;3.67;;;1.63;;
80411;SDS011;69749;42.684;23.360;2024-03-29T00:15:50;5.65;;;2.05;;
80411;SDS011;69749;42.684;23.360;2024-03-29T00:18:15;5.95;;;2.60;;
80411;SDS011;69749;42.684;23.360;2024-03-29T00:20:41;7.10;;;2.63;;
80411;SDS011;69749;42.684;23.360;2024-03-29T00:23:06;4.93;;;1.67;;
80411;SDS011;69749;42.684;23.360;2024-03-29T00:25:32;4.72;;;1.92;;
80411;SDS011;69749;42.684;23.360;2024-03-29T00:27:57;1.98;;;1.23;;
80411;SDS011;69749;42.684;23.360;2024-03-29T00:30:23;3.17;;;1.75;;
80411;SDS011;69749;42.684;23.360;2024-03-29T00:32:48;1.20;;;0.80;;
80411;SDS011;69749;42.684;23.360;2024-03-29T00:35:14;3.40;;;1.38;;
80411;SDS011;69749;42.684;23.360;2024-03-29T00:37:40;3.22;;;0.98;;
80411;SDS011;69749;42.684;23.360;2024-03-29T00:40:06;2.17;;;0.80;;
80411;SDS011;69749;42.684;23.360;2024-03-29T00:42:32;3.08;;;1.10;;
80411;SDS011;69749;42.684;23.360;2024-03-29T00:44:57;2.33;;;1.25;;
80411;SDS011;69749;42.684;23.360;2024-03-29T00:47:23;3.95;;;1.10;;
80411;SDS011;69749;42.684;23.360;2024-03-29T00:49:48;2.45;;;1.20;;
80411;SDS011;69749;42.684;23.360;2024-03-29T00:52:14;3.72;;;1.40;;
80411;SDS011;69749;42.684;23.360;2024-03-29T00:54:39;2.45;;;1.15;;
80411;SDS011;69749;42.684;23.360;2024-03-29T00:57:08;2.53;;;0.80;;
80411;SDS011;69749;42.684;23.360;2024-03-29T00:59:38;4.80;;;1.70;;
80411;SDS011;69749;42.684;23.360;2024-03-29T01:02:03;3.38;;;1.10;;
80411;SDS011;69749;42.684;23.360;2024-03-29T01:04:29;5.00;;;2.15;;
80411;SDS011;69749;42.684;23.360;2024-03-29T01:06:55;2.15;;;1.17;;
80411;SDS011;69749;42.684;23.360;2024-03-29T01:09:21;4.10;;;1.27;;
80411;SDS011;69749;42.684;23.360;2024-03-29T01:11:47;4.10;;;1.20;;
80411;SDS011;69749;42.684;23.360;2024-03-29T01:14:12;3.13;;;1.30;;
80411;SDS011;69749;42.684;23.360;2024-03-29T01:16:38;3.70;;;1.35;;
80411;SDS011;69749;42.684;23.360;2024-03-29T01:19:03;2.72;;;1.00;;
80411;SDS011;69749;42.684;23.360;2024-03-29T01:21:30;5.60;;;1.20;;
80411;SDS011;69749;42.684;23.360;2024-03-29T01:23:56;1.10;;;1.00;;
80411;SDS011;69749;42.684;23.360;2024-03-29T01:26:21;1.60;;;1.00;;
80411;SDS011;69749;42.684;23.360;2024-03-29T01:28:47;2.88;;;1.20;;
80411;SDS011;69749;42.684;23.360;2024-03-29T01:31:12;2.17;;;1.33;;
80411;SDS011;69749;42.684;23.360;2024-03-29T01:33:38;4.30;;;1.40;;
80411;SDS011;69749;42.684;23.360;2024-03-29T01:36:06;2.40;;;1.15;;
80411;SDS011;69749;42.684;23.360;2024-03-29T01:38:32;1.58;;;1.00;;
80411;SDS011;69749;42.684;23.360;2024-03-29T01:40:58;3.15;;;1.02;;
80411;SDS011;69749;42.684;23.360;2024-03-29T01:43:24;2.17;;;1.10;;
80411;SDS011;69749;42.684;23.360;2024-03-29T01:45:51;2.50;;;1.20;;
80411;SDS011;69749;42.684;23.360;2024-03-29T01:48:18;1.10;;;1.00;;
80411;SDS011;69749;42.684;23.360;2024-03-29T01:50:45;2.85;;;1.10;;
80411;SDS011;69749;42.684;23.360;2024-03-29T01:53:12;2.35;;;0.98;;
80411;SDS011;69749;42.684;23.360;2024-03-29T01:55:39;4.30;;;2.13;;
80411;SDS011;69749;42.684;23.360;2024-03-29T01:58:06;4.50;;;1.75;;
80411;SDS011;69749;42.684;23.360;2024-03-29T02:00:39;2.28;;;1.30;;
80411;SDS011;69749;42.684;23.360;2024-03-29T02:03:08;4.28;;;1.38;;
80411;SDS011;69749;42.684;23.360;2024-03-29T02:05:38;4.15;;;1.27;;
80411;SDS011;69749;42.684;23.360;2024-03-29T02:08:05;2.33;;;1.30;;
80411;SDS011;69749;42.684;23.360;2024-03-29T02:10:33;24.73;;;3.63;;
80411;SDS011;69749;42.684;23.360;2024-03-29T02:12:59;3.85;;;1.45;;
80411;SDS011;69749;42.684;23.360;2024-03-29T02:15:25;2.17;;;1.13;;
80411;SDS011;69749;42.684;23.360;2024-03-29T02:17:50;5.22;;;1.42;;
80411;SDS011;69749;42.684;23.360;2024-03-29T02:20:16;3.92;;;1.73;;
80411;SDS011;69749;42.684;23.360;2024-03-29T02:22:45;4.43;;;2.10;;
80411;SDS011;69749;42.684;23.360;2024-03-29T02:25:18;5.32;;;2.53;;
80411;SDS011;69749;42.684;23.360;2024-03-29T02:27:45;3.33;;;1.60;;
80411;SDS011;69749;42.684;23.360;2024-03-29T02:30:14;2.92;;;1.13;;
80411;SDS011;69749;42.684;23.360;2024-03-29T02:32:41;3.03;;;1.23;;
80411;SDS011;69749;42.684;23.360;2024-03-29T02:35:07;2.50;;;1.45;;
80411;SDS011;69749;42.684;23.360;2024-03-29T02:37:33;3.75;;;1.13;;
80411;SDS011;69749;42.684;23.360;2024-03-29T02:39:59;4.50;;;1.35;;
80411;SDS011;69749;42.684;23.360;2024-03-29T02:42:25;2.65;;;1.30;;
80411;SDS011;69749;42.684;23.360;2024-03-29T02:44:50;1.95;;;1.10;;
80411;SDS011;69749;42.684;23.360;2024-03-29T02:47:16;1.63;;;1.20;;
80411;SDS011;69749;42.684;23.360;2024-03-29T02:49:41;4.65;;;1.40;;
80411;SDS011;69749;42.684;23.360;2024-03-29T02:52:07;3.17;;;1.10;;
80411;SDS011;69749;42.684;23.360;2024-03-29T02:54:32;3.10;;;1.35;;
80411;SDS011;69749;42.684;23.360;2024-03-29T02:56:58;1.70;;;0.90;;
80411;SDS011;69749;42.684;23.360;2024-03-29T02:59:23;5.03;;;1.02;;
80411;SDS011;69749;42.684;23.360;2024-03-29T03:01:49;2.05;;;1.10;;
80411;SDS011;69749;42.684;23.360;2024-03-29T03:04:14;4.00;;;1.52;;
80411;SDS011;69749;42.684;23.360;2024-03-29T03:06:40;3.15;;;1.35;;
80411;SDS011;69749;42.684;23.360;2024-03-29T03:09:05;3.13;;;1.00;;
80411;SDS011;69749;42.684;23.360;2024-03-29T03:11:50;4.60;;;1.20;;
80411;SDS011;69749;42.684;23.360;2024-03-29T03:14:15;2.47;;;1.20;;
80411;SDS011;69749;42.684;23.360;2024-03-29T03:16:41;2.67;;;1.30;;
80411;SDS011;69749;42.684;23.360;2024-03-29T03:19:06;3.00;;;1.20;;
80411;SDS011;69749;42.684;23.360;2024-03-29T03:21:32;1.83;;;1.20;;
80411;SDS011;69749;42.684;23.360;2024-03-29T03:23:57;2.60;;;1.08;;
80411;SDS011;69749;42.684;23.360;2024-03-29T03:26:23;3.00;;;1.42;;
80411;SDS011;69749;42.684;23.360;2024-03-29T03:28:48;5.82;;;1.63;;
80411;SDS011;69749;42.684;23.360;2024-03-29T03:31:14;2.55;;;1.27;;
80411;SDS011;69749;42.684;23.360;2024-03-29T03:33:39;4.50;;;1.55;;
80411;SDS011;69749;42.684;23.360;2024-03-29T03:36:05;3.08;;;1.33;;
80411;SDS011;69749;42.684;23.360;2024-03-29T03:38:31;2.47;;;1.95;;
80411;SDS011;69749;42.684;23.360;2024-03-29T03:40:57;3.13;;;1.60;;
80411;SDS011;69749;42.684;23.360;2024-03-29T03:43:23;5.07;;;2.00;;
80411;SDS011;69749;42.684;23.360;2024-03-29T03:45:48;5.90;;;1.95;;
80411;SDS011;69749;42.684;23.360;2024-03-29T03:48:14;4.93;;;1.58;;
80411;SDS011;69749;42.684;23.360;2024-03-29T03:50:40;3.25;;;1.40;;
80411;SDS011;69749;42.684;23.360;2024-03-29T03:53:06;2.45;;;1.27;;
80411;SDS011;69749;42.684;23.360;2024-03-29T03:55:35;2.75;;;1.45;;
80411;SDS011;69749;42.684;23.360;2024-03-29T03:58:02;5.18;;;1.58;;
80411;SDS011;69749;42.684;23.360;2024-03-29T04:00:28;2.50;;;1.48;;
80411;SDS011;69749;42.684;23.360;2024-03-29T04:02:54;3.38;;;1.50;;
80411;SDS011;69749;42.684;23.360;2024-03-29T04:05:21;3.50;;;1.52;;
80411;SDS011;69749;42.684;23.360;2024-03-29T04:07:47;3.92;;;1.50;;
80411;SDS011;69749;42.684;23.360;2024-03-29T04:10:13;2.80;;;1.25;;
80411;SDS011;69749;42.684;23.360;2024-03-29T04:12:39;3.05;;;1.60;;
80411;SDS011;69749;42.684;23.360;2024-03-29T04:15:05;3.88;;;1.50;;
80411;SDS011;69749;42.684;23.360;2024-03-29T04:17:31;3.38;;;1.92;;
80411;SDS011;69749;42.684;23.360;2024-03-29T04:19:57;4.70;;;1.70;;
80411;SDS011;69749;42.684;23.360;2024-03-29T04:22:23;2.03;;;1.58;;
80411;SDS011;69749;42.684;23.360;2024-03-29T04:24:49;3.30;;;1.67;;
80411;SDS011;69749;42.684;23.360;2024-03-29T04:27:15;3.70;;;1.75;;
80411;SDS011;69749;42.684;23.360;2024-03-29T04:29:41;8.20;;;1.88;;
80411;SDS011;69749;42.684;23.360;2024-03-29T04:32:07;5.35;;;1.90;;
80411;SDS011;69749;42.684;23.360;2024-03-29T04:34:33;3.88;;;1.88;;
80411;SDS011;69749;42.684;23.360;2024-03-29T04:36:59;3.38;;;1.80;;
80411;SDS011;69749;42.684;23.360;2024-03-29T04:39:25;2.42;;;1.25;;
80411;SDS011;69749;42.684;23.360;2024-03-29T04:41:50;4.85;;;1.90;;
80411;SDS011;69749;42.684;23.360;2024-03-29T04:44:25;5.88;;;2.08;;
80411;SDS011;69749;42.684;23.360;2024-03-29T04:46:52;4.43;;;2.88;;
80411;SDS011;69749;42.684;23.360;2024-03-29T04:49:18;6.78;;;2.65;;
80411;SDS011;69749;42.684;23.360;2024-03-29T04:51:55;4.47;;;2.20;;
80411;SDS011;69749;42.684;23.360;2024-03-29T04:54:22;10.13;;;2.10;;
80411;SDS011;69749;42.684;23.360;2024-03-29T04:56:48;8.57;;;2.20;;
80411;SDS011;69749;42.684;23.360;2024-03-29T04:59:13;8.50;;;2.22;;
80411;SDS011;69749;42.684;23.360;2024-03-29T05:01:42;5.93;;;2.65;;
80411;SDS011;69749;42.684;23.360;2024-03-29T05:04:09;20.17;;;5.60;;
80411;SDS011;69749;42.684;23.360;2024-03-29T05:06:35;5.07;;;2.50;;
80411;SDS011;69749;42.684;23.360;2024-03-29T05:09:00;5.90;;;2.38;;
80411;SDS011;69749;42.684;23.360;2024-03-29T05:11:26;7.72;;;3.10;;
80411;SDS011;69749;42.684;23.360;2024-03-29T05:13:51;15.18;;;3.70;;
80411;SDS011;69749;42.684;23.360;2024-03-29T05:16:17;11.70;;;4.10;;
80411;SDS011;69749;42.684;23.360;2024-03-29T05:18:43;7.32;;;3.33;;
80411;SDS011;69749;42.684;23.360;2024-03-29T05:21:08;15.60;;;3.88;;
80411;SDS011;69749;42.684;23.360;2024-03-29T05:23:34;13.38;;;3.45;;
80411;SDS011;69749;42.684;23.360;2024-03-29T05:26:00;8.70;;;3.22;;
80411;SDS011;69749;42.684;23.360;2024-03-29T05:28:25;7.40;;;2.75;;
80411;SDS011;69749;42.684;23.360;2024-03-29T05:30:51;8.30;;;3.60;;
80411;SDS011;69749;42.684;23.360;2024-03-29T05:33:17;11.60;;;4.05;;
80411;SDS011;69749;42.684;23.360;2024-03-29T05:35:43;11.13;;;3.80;;
80411;SDS011;69749;42.684;23.360;2024-03-29T05:38:08;7.22;;;3.63;;
80411;SDS011;69749;42.684;23.360;2024-03-29T05:40:34;8.90;;;3.00;;
80411;SDS011;69749;42.684;23.360;2024-03-29T05:42:59;9.50;;;3.20;;
80411;SDS011;69749;42.684;23.360;2024-03-29T05:45:28;14.82;;;3.72;;
80411;SDS011;69749;42.684;23.360;2024-03-29T05:47:55;12.23;;;3.30;;
80411;SDS011;69749;42.684;23.360;2024-03-29T05:50:22;9.05;;;3.42;;
80411;SDS011;69749;42.684;23.360;2024-03-29T05:52:48;8.27;;;4.80;;
80411;SDS011;69749;42.684;23.360;2024-03-29T05:55:14;8.75;;;4.68;;
80411;SDS011;69749;42.684;23.360;2024-03-29T05:57:40;8.88;;;4.15;;
80411;SDS011;69749;42.684;23.360;2024-03-29T06:00:10;8.10;;;3.63;;
80411;SDS011;69749;42.684;23.360;2024-03-29T06:02:38;12.18;;;4.00;;
80411;SDS011;69749;42.684;23.360;2024-03-29T06:05:05;6.63;;;4.35;;
80411;SDS011;69749;42.684;23.360;2024-03-29T06:07:31;14.90;;;4.82;;
80411;SDS011;69749;42.684;23.360;2024-03-29T06:09:58;6.68;;;3.40;;
80411;SDS011;69749;42.684;23.360;2024-03-29T06:12:25;9.98;;;7.13;;
80411;SDS011;69749;42.684;23.360;2024-03-29T06:14:51;8.30;;;3.88;;
80411;SDS011;69749;42.684;23.360;2024-03-29T06:17:35;10.23;;;3.10;;
80411;SDS011;69749;42.684;23.360;2024-03-29T06:20:02;8.80;;;2.90;;
80411;SDS011;69749;42.684;23.360;2024-03-29T06:22:29;6.68;;;2.83;;
80411;SDS011;69749;42.684;23.360;2024-03-29T06:24:55;9.43;;;2.88;;
80411;SDS011;69749;42.684;23.360;2024-03-29T06:27:24;20.38;;;4.30;;
80411;SDS011;69749;42.684;23.360;2024-03-29T06:29:50;9.10;;;3.10;;
80411;SDS011;69749;42.684;23.360;2024-03-29T06:32:16;9.05;;;3.10;;
80411;SDS011;69749;42.684;23.360;2024-03-29T06:34:43;6.78;;;2.50;;
80411;SDS011;69749;42.684;23.360;2024-03-29T06:37:10;7.38;;;2.80;;
80411;SDS011;69749;42.684;23.360;2024-03-29T06:39:36;6.00;;;2.70;;
80411;SDS011;69749;42.684;23.360;2024-03-29T06:44:27;9.02;;;2.95;;
80411;SDS011;69749;42.684;23.360;2024-03-29T06:49:18;9.18;;;2.75;;
80411;SDS011;69749;42.684;23.360;2024-03-29T06:54:09;8.65;;;2.67;;
80411;SDS011;69749;42.684;23.360;2024-03-29T06:59:00;5.47;;;2.45;;
80411;SDS011;69749;42.684;23.360;2024-03-29T07:01:25;8.98;;;2.67;;
80411;SDS011;69749;42.684;23.360;2024-03-29T07:06:16;9.13;;;2.65;;
80411;SDS011;69749;42.684;23.360;2024-03-29T07:08:41;7.57;;;2.13;;
80411;SDS011;69749;42.684;23.360;2024-03-29T07:13:32;4.30;;;1.60;;
80411;SDS011;69749;42.684;23.360;2024-03-29T07:15:58;3.95;;;1.58;;
80411;SDS011;69749;42.684;23.360;2024-03-29T07:18:27;8.75;;;2.10;;
80411;SDS011;69749;42.684;23.360;2024-03-29T07:20:53;4.75;;;2.03;;
80411;SDS011;69749;42.684;23.360;2024-03-29T07:25:45;4.88;;;1.85;;
80411;SDS011;69749;42.684;23.360;2024-03-29T07:28:22;3.55;;;1.63;;
80411;SDS011;69749;42.684;23.360;2024-03-29T07:30:47;3.10;;;1.50;;
80411;SDS011;69749;42.684;23.360;2024-03-29T07:33:15;4.32;;;1.80;;
80411;SDS011;69749;42.684;23.360;2024-03-29T07:35:40;3.42;;;1.50;;
80411;SDS011;69749;42.684;23.360;2024-03-29T07:38:06;2.70;;;1.48;;
80411;SDS011;69749;42.684;23.360;2024-03-29T07:40:32;4.70;;;1.73;;
80411;SDS011;69749;42.684;23.360;2024-03-29T07:42:58;4.07;;;1.65;;
80411;SDS011;69749;42.684;23.360;2024-03-29T07:45:25;2.75;;;1.65;;
80411;SDS011;69749;42.684;23.360;2024-03-29T07:47:50;3.83;;;1.50;;
80411;SDS011;69749;42.684;23.360;2024-03-29T07:50:18;4.80;;;2.58;;
80411;SDS011;69749;42.684;23.360;2024-03-29T07:52:46;6.85;;;2.10;;
80411;SDS011;69749;42.684;23.360;2024-03-29T07:55:11;5.50;;;1.83;;
80411;SDS011;69749;42.684;23.360;2024-03-29T07:57:37;7.70;;;5.30;;
80411;SDS011;69749;42.684;23.360;2024-03-29T08:00:03;4.70;;;1.58;;
80411;SDS011;69749;42.684;23.360;2024-03-29T08:02:29;6.13;;;2.30;;
80411;SDS011;69749;42.684;23.360;2024-03-29T08:04:56;3.10;;;1.80;;
80411;SDS011;69749;42.684;23.360;2024-03-29T08:07:22;4.43;;;1.55;;
80411;SDS011;69749;42.684;23.360;2024-03-29T08:09:47;3.05;;;1.40;;
80411;SDS011;69749;42.684;23.360;2024-03-29T08:12:14;7.28;;;1.63;;
80411;SDS011;69749;42.684;23.360;2024-03-29T08:14:40;5.47;;;1.45;;
80411;SDS011;69749;42.684;23.360;2024-03-29T08:17:05;2.45;;;1.40;;
80411;SDS011;69749;42.684;23.360;2024-03-29T08:19:34;2.17;;;1.20;;
80411;SDS011;69749;42.684;23.360;2024-03-29T08:22:05;3.72;;;1.50;;
80411;SDS011;69749;42.684;23.360;2024-03-29T08:24:30;2.70;;;1.52;;
80411;SDS011;69749;42.684;23.360;2024-03-29T08:26:56;4.05;;;1.23;;
80411;SDS011;69749;42.684;23.360;2024-03-29T08:29:24;7.07;;;1.58;;
80411;SDS011;69749;42.684;23.360;2024-03-29T08:31:49;5.03;;;1.73;;
80411;SDS011;69749;42.684;23.360;2024-03-29T08:36:40;5.25;;;2.00;;
80411;SDS011;69749;42.684;23.360;2024-03-29T08:39:06;4.50;;;1.58;;
80411;SDS011;69749;42.684;23.360;2024-03-29T08:41:31;3.92;;;1.70;;
80411;SDS011;69749;42.684;23.360;2024-03-29T08:43:57;4.22;;;1.30;;
80411;SDS011;69749;42.684;23.360;2024-03-29T08:46:22;3.25;;;1.10;;
80411;SDS011;69749;42.684;23.360;2024-03-29T08:48:48;5.57;;;1.45;;
80411;SDS011;69749;42.684;23.360;2024-03-29T08:51:14;6.10;;;1.80;;
80411;SDS011;69749;42.684;23.360;2024-03-29T08:53:42;3.92;;;1.10;;
80411;SDS011;69749;42.684;23.360;2024-03-29T08:56:07;2.70;;;1.25;;
80411;SDS011;69749;42.684;23.360;2024-03-29T08:58:33;2.85;;;1.50;;
80411;SDS011;69749;42.684;23.360;2024-03-29T09:00:58;3.05;;;1.33;;
80411;SDS011;69749;42.684;23.360;2024-03-29T09:03:26;4.78;;;1.67;;
80411;SDS011;69749;42.684;23.360;2024-03-29T09:05:51;3.60;;;1.30;;
80411;SDS011;69749;42.684;23.360;2024-03-29T09:08:17;5.45;;;1.40;;
80411;SDS011;69749;42.684;23.360;2024-03-29T09:10:43;2.13;;;1.38;;
80411;SDS011;69749;42.684;23.360;2024-03-29T09:13:09;3.25;;;1.23;;
80411;SDS011;69749;42.684;23.360;2024-03-29T09:15:35;4.90;;;1.10;;
80411;SDS011;69749;42.684;23.360;2024-03-29T09:18:01;3.33;;;0.95;;
80411;SDS011;69749;42.684;23.360;2024-03-29T09:23:00;2.53;;;1.20;;
80411;SDS011;69749;42.684;23.360;2024-03-29T09:25:25;3.78;;;1.45;;
80411;SDS011;69749;42.684;23.360;2024-03-29T09:27:51;2.30;;;1.02;;
80411;SDS011;69749;42.684;23.360;2024-03-29T09:30:16;4.65;;;1.20;;
80411;SDS011;69749;42.684;23.360;2024-03-29T09:32:43;3.78;;;1.20;;
80411;SDS011;69749;42.684;23.360;2024-03-29T09:35:09;2.38;;;0.88;;
80411;SDS011;69749;42.684;23.360;2024-03-29T09:37:35;3.55;;;0.95;;
80411;SDS011;69749;42.684;23.360;2024-03-29T09:40:04;4.22;;;1.10;;
80411;SDS011;69749;42.684;23.360;2024-03-29T09:42:31;5.75;;;1.55;;
80411;SDS011;69749;42.684;23.360;2024-03-29T09:44:58;3.72;;;1.17;;
80411;SDS011;69749;42.684;23.360;2024-03-29T09:47:24;2.55;;;1.08;;
80411;SDS011;69749;42.684;23.360;2024-03-29T09:49:52;4.90;;;1.45;;
80411;SDS011;69749;42.684;23.360;2024-03-29T09:52:19;3.45;;;1.10;;
80411;SDS011;69749;42.684;23.360;2024-03-29T09:54:45;4.68;;;1.00;;
80411;SDS011;69749;42.684;23.360;2024-03-29T09:57:12;3.00;;;1.10;;
80411;SDS011;69749;42.684;23.360;2024-03-29T09:59:42;8.00;;;1.50;;
80411;SDS011;69749;42.684;23.360;2024-03-29T10:02:11;4.15;;;1.02;;
80411;SDS011;69749;42.684;23.360;2024-03-29T10:04:41;2.67;;;1.02;;
80411;SDS011;69749;42.684;23.360;2024-03-29T10:07:07;3.83;;;0.80;;
80411;SDS011;69749;42.684;23.360;2024-03-29T10:09:33;3.60;;;1.23;;
80411;SDS011;69749;42.684;23.360;2024-03-29T10:12:01;4.25;;;0.90;;
80411;SDS011;69749;42.684;23.360;2024-03-29T10:14:29;2.22;;;1.05;;
80411;SDS011;69749;42.684;23.360;2024-03-29T10:16:55;3.85;;;0.90;;
80411;SDS011;69749;42.684;23.360;2024-03-29T10:19:22;5.47;;;1.08;;
80411;SDS011;69749;42.684;23.360;2024-03-29T10:21:48;5.05;;;1.17;;
80411;SDS011;69749;42.684;23.360;2024-03-29T10:24:14;4.40;;;1.05;;
80411;SDS011;69749;42.684;23.360;2024-03-29T10:26:42;1.75;;;0.88;;
80411;SDS011;69749;42.684;23.360;2024-03-29T10:29:08;3.38;;;1.05;;
80411;SDS011;69749;42.684;23.360;2024-03-29T10:31:34;3.63;;;1.25;;
80411;SDS011;69749;42.684;23.360;2024-03-29T10:34:04;3.85;;;1.40;;
80411;SDS011;69749;42.684;23.360;2024-03-29T10:36:34;4.20;;;1.13;;
80411;SDS011;69749;42.684;23.360;2024-03-29T10:39:08;5.88;;;1.33;;
80411;SDS011;69749;42.684;23.360;2024-03-29T10:41:41;3.33;;;1.20;;
80411;SDS011;69749;42.684;23.360;2024-03-29T10:44:09;4.05;;;1.02;;
80411;SDS011;69749;42.684;23.360;2024-03-29T10:46:39;4.95;;;1.38;;
80411;SDS011;69749;42.684;23.360;2024-03-29T10:49:06;3.08;;;0.98;;
80411;SDS011;69749;42.684;23.360;2024-03-29T10:51:39;6.75;;;1.58;;
80411;SDS011;69749;42.684;23.360;2024-03-29T10:54:07;3.83;;;1.35;;
80411;SDS011;69749;42.684;23.360;2024-03-29T10:56:35;2.85;;;1.17;;
80411;SDS011;69749;42.684;23.360;2024-03-29T10:59:06;5.47;;;1.52;;
80411;SDS011;69749;42.684;23.360;2024-03-29T11:01:39;3.90;;;1.20;;
80411;SDS011;69749;42.684;23.360;2024-03-29T11:04:13;8.13;;;1.33;;
80411;SDS011;69749;42.684;23.360;2024-03-29T11:06:46;2.92;;;1.27;;
80411;SDS011;69749;42.684;23.360;2024-03-29T11:09:16;4.65;;;1.50;;
80411;SDS011;69749;42.684;23.360;2024-03-29T11:11:43;4.18;;;1.77;;
80411;SDS011;69749;42.684;23.360;2024-03-29T11:14:13;3.53;;;1.38;;
80411;SDS011;69749;42.684;23.360;2024-03-29T11:16:43;4.80;;;1.00;;
80411;SDS011;69749;42.684;23.360;2024-03-29T11:19:12;8.75;;;2.03;;
80411;SDS011;69749;42.684;23.360;2024-03-29T11:21:38;9.85;;;1.90;;
80411;SDS011;69749;42.684;23.360;2024-03-29T11:24:07;3.80;;;1.30;;
80411;SDS011;69749;42.684;23.360;2024-03-29T11:26:34;5.80;;;1.40;;
80411;SDS011;69749;42.684;23.360;2024-03-29T11:29:00;4.22;;;1.58;;
80411;SDS011;69749;42.684;23.360;2024-03-29T11:31:27;5.00;;;2.08;;
80411;SDS011;69749;42.684;23.360;2024-03-29T11:33:53;3.30;;;1.40;;
80411;SDS011;69749;42.684;23.360;2024-03-29T11:36:22;6.45;;;2.25;;
80411;SDS011;69749;42.684;23.360;2024-03-29T11:38:54;3.90;;;1.73;;
80411;SDS011;69749;42.684;23.360;2024-03-29T11:41:24;5.68;;;2.30;;
80411;SDS011;69749;42.684;23.360;2024-03-29T11:43:52;3.88;;;1.95;;
80411;SDS011;69749;42.684;23.360;2024-03-29T11:46:22;2.17;;;1.30;;
80411;SDS011;69749;42.684;23.360;2024-03-29T11:51:18;4.07;;;0.90;;
80411;SDS011;69749;42.684;23.360;2024-03-29T11:53:47;5.03;;;2.17;;
80411;SDS011;69749;42.684;23.360;2024-03-29T11:56:12;11.70;;;2.60;;
80411;SDS011;69749;42.684;23.360;2024-03-29T11:58:41;6.40;;;1.92;;
80411;SDS011;69749;42.684;23.360;2024-03-29T12:01:07;5.93;;;1.40;;
80411;SDS011;69749;42.684;23.360;2024-03-29T12:03:40;5.72;;;2.17;;
80411;SDS011;69749;42.684;23.360;2024-03-29T12:06:06;5.22;;;2.45;;
80411;SDS011;69749;42.684;23.360;2024-03-29T12:08:37;10.30;;;4.90;;
80411;SDS011;69749;42.684;23.360;2024-03-29T12:11:04;9.43;;;1.92;;
80411;SDS011;69749;42.684;23.360;2024-03-29T12:13:30;8.63;;;1.83;;
80411;SDS011;69749;42.684;23.360;2024-03-29T12:15:56;4.68;;;1.67;;
80411;SDS011;69749;42.684;23.360;2024-03-29T12:18:23;4.90;;;1.67;;
80411;SDS011;69749;42.684;23.360;2024-03-29T12:20:50;9.68;;;2.22;;
80411;SDS011;69749;42.684;23.360;2024-03-29T12:23:20;5.60;;;2.75;;
80411;SDS011;69749;42.684;23.360;2024-03-29T12:25:47;4.03;;;1.30;;
80411;SDS011;69749;42.684;23.360;2024-03-29T12:28:14;2.72;;;1.10;;
80411;SDS011;69749;42.684;23.360;2024-03-29T12:30:44;7.30;;;2.17;;
80411;SDS011;69749;42.684;23.360;2024-03-29T12:33:12;2.10;;;1.27;;
80411;SDS011;69749;42.684;23.360;2024-03-29T12:35:41;5.43;;;1.33;;
80411;SDS011;69749;42.684;23.360;2024-03-29T12:38:07;5.43;;;1.52;;
80411;SDS011;69749;42.684;23.360;2024-03-29T12:40:36;3.72;;;1.17;;
80411;SDS011;69749;42.684;23.360;2024-03-29T12:43:04;4.57;;;1.25;;
80411;SDS011;69749;42.684;23.360;2024-03-29T12:45:30;1.95;;;1.10;;
80411;SDS011;69749;42.684;23.360;2024-03-29T12:47:56;3.75;;;1.60;;
80411;SDS011;69749;42.684;23.360;2024-03-29T12:52:48;4.97;;;1.55;;
80411;SDS011;69749;42.684;23.360;2024-03-29T12:55:13;5.60;;;1.23;;
80411;SDS011;69749;42.684;23.360;2024-03-29T12:57:43;4.15;;;1.63;;
80411;SDS011;69749;42.684;23.360;2024-03-29T13:00:09;2.33;;;1.08;;
80411;SDS011;69749;42.684;23.360;2024-03-29T13:02:36;4.88;;;1.42;;
80411;SDS011;69749;42.684;23.360;2024-03-29T13:05:03;6.78;;;1.02;;
80411;SDS011;69749;42.684;23.360;2024-03-29T13:07:29;5.40;;;1.83;;
80411;SDS011;69749;42.684;23.360;2024-03-29T13:10:02;3.85;;;1.67;;
80411;SDS011;69749;42.684;23.360;2024-03-29T13:15:03;3.53;;;1.27;;
80411;SDS011;69749;42.684;23.360;2024-03-29T13:17:39;4.22;;;1.35;;
80411;SDS011;69749;42.684;23.360;2024-03-29T13:20:04;4.15;;;1.60;;
80411;SDS011;69749;42.684;23.360;2024-03-29T13:22:30;8.40;;;4.45;;
80411;SDS011;69749;42.684;23.360;2024-03-29T13:24:56;3.05;;;1.25;;
80411;SDS011;69749;42.684;23.360;2024-03-29T13:27:21;2.80;;;1.33;;
80411;SDS011;69749;42.684;23.360;2024-03-29T13:29:50;4.07;;;1.10;;
80411;SDS011;69749;42.684;23.360;2024-03-29T13:32:15;2.67;;;0.88;;
80411;SDS011;69749;42.684;23.360;2024-03-29T13:34:41;2.05;;;0.93;;
80411;SDS011;69749;42.684;23.360;2024-03-29T13:37:06;7.22;;;1.73;;
80411;SDS011;69749;42.684;23.360;2024-03-29T13:39:31;9.35;;;1.60;;
80411;SDS011;69749;42.684;23.360;2024-03-29T13:41:57;2.97;;;1.55;;
80411;SDS011;69749;42.684;23.360;2024-03-29T13:44:22;5.82;;;1.52;;
80411;SDS011;69749;42.684;23.360;2024-03-29T13:46:48;6.72;;;1.65;;
80411;SDS011;69749;42.684;23.360;2024-03-29T13:49:13;4.93;;;1.30;;
80411;SDS011;69749;42.684;23.360;2024-03-29T13:51:39;7.78;;;1.55;;
80411;SDS011;69749;42.684;23.360;2024-03-29T13:54:04;4.78;;;1.40;;
80411;SDS011;69749;42.684;23.360;2024-03-29T13:56:30;4.32;;;1.33;;
80411;SDS011;69749;42.684;23.360;2024-03-29T13:58:56;2.15;;;1.08;;
80411;SDS011;69749;42.684;23.360;2024-03-29T14:01:21;4.68;;;1.30;;
80411;SDS011;69749;42.684;23.360;2024-03-29T14:03:47;4.00;;;1.88;;
80411;SDS011;69749;42.684;23.360;2024-03-29T14:06:12;7.63;;;4.00;;
80411;SDS011;69749;42.684;23.360;2024-03-29T14:08:38;2.58;;;1.50;;
80411;SDS011;69749;42.684;23.360;2024-03-29T14:11:03;2.95;;;0.70;;
80411;SDS011;69749;42.684;23.360;2024-03-29T14:13:29;2.28;;;1.20;;
80411;SDS011;69749;42.684;23.360;2024-03-29T14:15:54;4.07;;;1.00;;
80411;SDS011;69749;42.684;23.360;2024-03-29T14:18:24;3.63;;;0.80;;
80411;SDS011;69749;42.684;23.360;2024-03-29T14:20:49;3.70;;;0.93;;
80411;SDS011;69749;42.684;23.360;2024-03-29T14:23:16;16.25;;;3.80;;
80411;SDS011;69749;42.684;23.360;2024-03-29T14:25:44;1.23;;;0.80;;
80411;SDS011;69749;42.684;23.360;2024-03-29T14:28:09;3.08;;;1.20;;
80411;SDS011;69749;42.684;23.360;2024-03-29T14:30:35;3.17;;;0.93;;
80411;SDS011;69749;42.684;23.360;2024-03-29T14:33:00;1.80;;;0.75;;
80411;SDS011;69749;42.684;23.360;2024-03-29T14:35:31;5.22;;;1.40;;
80411;SDS011;69749;42.684;23.360;2024-03-29T14:37:57;2.90;;;0.93;;
80411;SDS011;69749;42.684;23.360;2024-03-29T14:40:24;5.00;;;1.10;;
80411;SDS011;69749;42.684;23.360;2024-03-29T14:42:51;3.72;;;1.30;;
80411;SDS011;69749;42.684;23.360;2024-03-29T14:45:17;3.55;;;0.75;;
80411;SDS011;69749;42.684;23.360;2024-03-29T14:47:42;2.78;;;1.00;;
80411;SDS011;69749;42.684;23.360;2024-03-29T14:50:08;3.30;;;0.70;;
80411;SDS011;69749;42.684;23.360;2024-03-29T14:52:34;2.53;;;1.10;;
80411;SDS011;69749;42.684;23.360;2024-03-29T14:55:03;6.10;;;1.45;;
80411;SDS011;69749;42.684;23.360;2024-03-29T14:57:29;7.18;;;1.55;;
80411;SDS011;69749;42.684;23.360;2024-03-29T14:59:55;3.75;;;0.95;;